sensor_id;sensor_type;location;lat;lon;timestamp;P1;durP1;ratioP1;P2;durP2;ratioP2
4051;SDS011;2040;50.924;11.604;2024-03-08T00:01:39;20.17;;;10.40;;
4051;SDS011;2040;50.924;11.604;2024-03-08T00:04:05;19.43;;;9.90;;
4051;SDS011;2040;50.924;11.604;2024-03-08T00:06:31;19.80;;;9.53;;
4051;SDS011;2040;50.924;11.604;2024-03-08T00:08:57;20.37;;;9.83;;
4051;SDS011;2040;50.924;11.604;2024-03-08T00:11:22;20.13;;;8.73;;
4051;SDS011;2040;50.924;11.604;2024-03-08T00:13:51;26.73;;;10.93;;
4051;SDS011;2040;50.924;11.604;2024-03-08T00:16:17;18.37;;;10.33;;
4051;SDS011;2040;50.924;11.604;2024-03-08T00:18:44;17.40;;;9.67;;
4051;SDS011;2040;50.924;11.604;2024-03-08T00:21:10;20.77;;;10.27;;
4051;SDS011;2040;50.924;11.604;2024-03-08T00:23:37;21.93;;;9.50;;
4051;SDS011;2040;50.924;11.604;2024-03-08T00:26:02;14.40;;;9.27;;
4051;SDS011;2040;50.924;11.604;2024-03-08T00:28:29;17.43;;;8.33;;
4051;SDS011;2040;50.924;11.604;2024-03-08T00:30:56;17.13;;;9.70;;
4051;SDS011;2040;50.924;11.604;2024-03-08T00:33:21;19.43;;;9.33;;
4051;SDS011;2040;50.924;11.604;2024-03-08T00:35:47;20.67;;;10.67;;
4051;SDS011;2040;50.924;11.604;2024-03-08T00:38:12;19.73;;;9.53;;
4051;SDS011;2040;50.924;11.604;2024-03-08T00:40:38;15.50;;;9.87;;
4051;SDS011;2040;50.924;11.604;2024-03-08T00:43:05;20.77;;;9.47;;
4051;SDS011;2040;50.924;11.604;2024-03-08T00:45:31;18.87;;;9.93;;
4051;SDS011;2040;50.924;11.604;2024-03-08T00:47:56;26.87;;;10.17;;
4051;SDS011;2040;50.924;11.604;2024-03-08T00:50:22;16.47;;;8.93;;
4051;SDS011;2040;50.924;11.604;2024-03-08T00:52:47;16.83;;;9.00;;
4051;SDS011;2040;50.924;11.604;2024-03-08T00:55:13;19.17;;;9.17;;
4051;SDS011;2040;50.924;11.604;2024-03-08T00:57:39;12.77;;;8.67;;
4051;SDS011;2040;50.924;11.604;2024-03-08T01:00:05;25.60;;;11.23;;
4051;SDS011;2040;50.924;11.604;2024-03-08T01:02:36;17.10;;;8.80;;
4051;SDS011;2040;50.924;11.604;2024-03-08T01:05:05;20.60;;;11.10;;
4051;SDS011;2040;50.924;11.604;2024-03-08T01:07:32;21.30;;;9.93;;
4051;SDS011;2040;50.924;11.604;2024-03-08T01:10:04;22.97;;;12.37;;
4051;SDS011;2040;50.924;11.604;2024-03-08T01:12:34;22.47;;;9.90;;
4051;SDS011;2040;50.924;11.604;2024-03-08T01:15:00;22.13;;;11.40;;
4051;SDS011;2040;50.924;11.604;2024-03-08T01:17:26;20.27;;;9.90;;
4051;SDS011;2040;50.924;11.604;2024-03-08T01:19:51;20.57;;;11.50;;
4051;SDS011;2040;50.924;11.604;2024-03-08T01:22:18;23.73;;;9.43;;
4051;SDS011;2040;50.924;11.604;2024-03-08T01:24:44;16.07;;;9.07;;
4051;SDS011;2040;50.924;11.604;2024-03-08T01:27:09;23.73;;;9.30;;
4051;SDS011;2040;50.924;11.604;2024-03-08T01:29:35;16.07;;;11.00;;
4051;SDS011;2040;50.924;11.604;2024-03-08T01:32:00;22.13;;;9.47;;
4051;SDS011;2040;50.924;11.604;2024-03-08T01:34:27;17.50;;;8.77;;
4051;SDS011;2040;50.924;11.604;2024-03-08T01:36:53;25.00;;;10.50;;
4051;SDS011;2040;50.924;11.604;2024-03-08T01:39:20;18.80;;;8.53;;
4051;SDS011;2040;50.924;11.604;2024-03-08T01:41:47;19.13;;;9.90;;
4051;SDS011;2040;50.924;11.604;2024-03-08T01:44:12;20.63;;;10.07;;
4051;SDS011;2040;50.924;11.604;2024-03-08T01:46:42;19.30;;;10.73;;
4051;SDS011;2040;50.924;11.604;2024-03-08T01:49:18;29.97;;;10.20;;
4051;SDS011;2040;50.924;11.604;2024-03-08T01:51:46;18.70;;;9.70;;
4051;SDS011;2040;50.924;11.604;2024-03-08T01:54:15;21.93;;;10.23;;
4051;SDS011;2040;50.924;11.604;2024-03-08T01:56:42;19.07;;;11.17;;
4051;SDS011;2040;50.924;11.604;2024-03-08T01:59:08;20.27;;;10.23;;
4051;SDS011;2040;50.924;11.604;2024-03-08T02:01:34;23.17;;;10.20;;
4051;SDS011;2040;50.924;11.604;2024-03-08T02:03:59;26.67;;;11.70;;
4051;SDS011;2040;50.924;11.604;2024-03-08T02:06:25;20.87;;;9.40;;
4051;SDS011;2040;50.924;11.604;2024-03-08T02:08:51;21.73;;;9.80;;
4051;SDS011;2040;50.924;11.604;2024-03-08T02:11:17;24.20;;;10.70;;
4051;SDS011;2040;50.924;11.604;2024-03-08T02:13:43;18.10;;;10.17;;
4051;SDS011;2040;50.924;11.604;2024-03-08T02:16:09;19.20;;;9.73;;
4051;SDS011;2040;50.924;11.604;2024-03-08T02:18:35;21.93;;;10.30;;
4051;SDS011;2040;50.924;11.604;2024-03-08T02:21:01;32.00;;;10.27;;
4051;SDS011;2040;50.924;11.604;2024-03-08T02:23:28;21.27;;;10.90;;
4051;SDS011;2040;50.924;11.604;2024-03-08T02:25:55;19.40;;;10.93;;
4051;SDS011;2040;50.924;11.604;2024-03-08T02:28:21;24.33;;;11.27;;
4051;SDS011;2040;50.924;11.604;2024-03-08T02:30:47;20.70;;;10.70;;
4051;SDS011;2040;50.924;11.604;2024-03-08T02:33:14;18.57;;;9.70;;
4051;SDS011;2040;50.924;11.604;2024-03-08T02:35:46;21.00;;;10.07;;
4051;SDS011;2040;50.924;11.604;2024-03-08T02:38:13;29.83;;;11.23;;
4051;SDS011;2040;50.924;11.604;2024-03-08T02:40:43;18.90;;;9.33;;
4051;SDS011;2040;50.924;11.604;2024-03-08T02:43:10;26.47;;;10.03;;
4051;SDS011;2040;50.924;11.604;2024-03-08T02:45:36;17.63;;;9.87;;
4051;SDS011;2040;50.924;11.604;2024-03-08T02:48:01;25.40;;;11.70;;
4051;SDS011;2040;50.924;11.604;2024-03-08T02:50:27;21.30;;;11.03;;
4051;SDS011;2040;50.924;11.604;2024-03-08T02:52:53;24.33;;;10.73;;
4051;SDS011;2040;50.924;11.604;2024-03-08T02:55:19;20.60;;;10.80;;
4051;SDS011;2040;50.924;11.604;2024-03-08T02:57:45;20.97;;;10.40;;
4051;SDS011;2040;50.924;11.604;2024-03-08T03:00:12;15.50;;;9.13;;
4051;SDS011;2040;50.924;11.604;2024-03-08T03:02:38;23.57;;;10.67;;
4051;SDS011;2040;50.924;11.604;2024-03-08T03:08:26;23.37;;;11.60;;
4051;SDS011;2040;50.924;11.604;2024-03-08T03:10:51;24.73;;;11.90;;
4051;SDS011;2040;50.924;11.604;2024-03-08T03:13:17;18.03;;;10.20;;
4051;SDS011;2040;50.924;11.604;2024-03-08T03:15:45;22.23;;;9.40;;
4051;SDS011;2040;50.924;11.604;2024-03-08T03:18:11;15.97;;;9.73;;
4051;SDS011;2040;50.924;11.604;2024-03-08T03:20:37;18.27;;;9.57;;
4051;SDS011;2040;50.924;11.604;2024-03-08T03:23:05;23.17;;;9.90;;
4051;SDS011;2040;50.924;11.604;2024-03-08T03:25:33;21.37;;;10.50;;
4051;SDS011;2040;50.924;11.604;2024-03-08T03:28:00;23.03;;;11.27;;
4051;SDS011;2040;50.924;11.604;2024-03-08T03:30:29;28.47;;;12.07;;
4051;SDS011;2040;50.924;11.604;2024-03-08T03:33:00;19.87;;;10.33;;
4051;SDS011;2040;50.924;11.604;2024-03-08T03:35:27;26.77;;;11.10;;
4051;SDS011;2040;50.924;11.604;2024-03-08T03:37:54;21.23;;;10.80;;
4051;SDS011;2040;50.924;11.604;2024-03-08T03:40:32;20.37;;;10.30;;
4051;SDS011;2040;50.924;11.604;2024-03-08T03:42:58;23.83;;;11.63;;
4051;SDS011;2040;50.924;11.604;2024-03-08T03:45:24;18.83;;;10.40;;
4051;SDS011;2040;50.924;11.604;2024-03-08T03:47:50;24.07;;;9.80;;
4051;SDS011;2040;50.924;11.604;2024-03-08T03:50:17;25.00;;;11.20;;
4051;SDS011;2040;50.924;11.604;2024-03-08T03:52:44;24.20;;;10.10;;
4051;SDS011;2040;50.924;11.604;2024-03-08T03:55:13;22.20;;;11.23;;
4051;SDS011;2040;50.924;11.604;2024-03-08T03:57:39;23.40;;;11.60;;
4051;SDS011;2040;50.924;11.604;2024-03-08T04:00:06;38.70;;;12.40;;
4051;SDS011;2040;50.924;11.604;2024-03-08T04:02:34;22.20;;;11.60;;
4051;SDS011;2040;50.924;11.604;2024-03-08T04:05:04;20.30;;;11.53;;
4051;SDS011;2040;50.924;11.604;2024-03-08T04:07:31;22.13;;;10.63;;
4051;SDS011;2040;50.924;11.604;2024-03-08T04:09:56;21.17;;;9.33;;
4051;SDS011;2040;50.924;11.604;2024-03-08T04:12:22;25.90;;;10.73;;
4051;SDS011;2040;50.924;11.604;2024-03-08T04:14:48;20.40;;;10.70;;
4051;SDS011;2040;50.924;11.604;2024-03-08T04:17:14;21.00;;;11.80;;
4051;SDS011;2040;50.924;11.604;2024-03-08T04:19:40;18.93;;;9.97;;
4051;SDS011;2040;50.924;11.604;2024-03-08T04:22:06;23.73;;;11.00;;
4051;SDS011;2040;50.924;11.604;2024-03-08T04:24:32;23.50;;;11.07;;
4051;SDS011;2040;50.924;11.604;2024-03-08T04:26:58;26.37;;;12.20;;
4051;SDS011;2040;50.924;11.604;2024-03-08T04:29:23;22.80;;;12.20;;
4051;SDS011;2040;50.924;11.604;2024-03-08T04:31:49;19.73;;;10.10;;
4051;SDS011;2040;50.924;11.604;2024-03-08T04:34:21;17.97;;;10.37;;
4051;SDS011;2040;50.924;11.604;2024-03-08T04:36:47;24.20;;;10.60;;
4051;SDS011;2040;50.924;11.604;2024-03-08T04:39:13;21.63;;;10.97;;
4051;SDS011;2040;50.924;11.604;2024-03-08T04:41:40;20.87;;;9.50;;
4051;SDS011;2040;50.924;11.604;2024-03-08T04:44:09;24.00;;;11.30;;
4051;SDS011;2040;50.924;11.604;2024-03-08T04:46:35;21.03;;;9.43;;
4051;SDS011;2040;50.924;11.604;2024-03-08T04:49:01;21.13;;;10.87;;
4051;SDS011;2040;50.924;11.604;2024-03-08T04:51:26;18.60;;;10.90;;
4051;SDS011;2040;50.924;11.604;2024-03-08T04:53:52;23.23;;;11.30;;
4051;SDS011;2040;50.924;11.604;2024-03-08T04:56:18;17.80;;;10.13;;
4051;SDS011;2040;50.924;11.604;2024-03-08T04:58:44;16.73;;;9.10;;
4051;SDS011;2040;50.924;11.604;2024-03-08T05:01:11;21.07;;;11.77;;
4051;SDS011;2040;50.924;11.604;2024-03-08T05:03:37;15.43;;;9.50;;
4051;SDS011;2040;50.924;11.604;2024-03-08T05:06:03;24.43;;;12.10;;
4051;SDS011;2040;50.924;11.604;2024-03-08T05:08:29;26.27;;;10.10;;
4051;SDS011;2040;50.924;11.604;2024-03-08T05:10:55;20.20;;;11.53;;
4051;SDS011;2040;50.924;11.604;2024-03-08T05:13:21;21.93;;;10.80;;
4051;SDS011;2040;50.924;11.604;2024-03-08T05:15:48;24.00;;;12.57;;
4051;SDS011;2040;50.924;11.604;2024-03-08T05:18:15;22.80;;;11.40;;
4051;SDS011;2040;50.924;11.604;2024-03-08T05:20:41;20.40;;;10.80;;
4051;SDS011;2040;50.924;11.604;2024-03-08T05:23:06;23.03;;;11.70;;
4051;SDS011;2040;50.924;11.604;2024-03-08T05:25:33;18.50;;;11.20;;
4051;SDS011;2040;50.924;11.604;2024-03-08T05:27:58;36.53;;;11.27;;
4051;SDS011;2040;50.924;11.604;2024-03-08T05:30:24;21.60;;;10.40;;
4051;SDS011;2040;50.924;11.604;2024-03-08T05:32:49;19.17;;;10.20;;
4051;SDS011;2040;50.924;11.604;2024-03-08T05:35:15;28.20;;;11.47;;
4051;SDS011;2040;50.924;11.604;2024-03-08T05:37:41;25.00;;;11.53;;
4051;SDS011;2040;50.924;11.604;2024-03-08T05:40:07;14.87;;;9.53;;
4051;SDS011;2040;50.924;11.604;2024-03-08T05:42:37;22.90;;;10.97;;
4051;SDS011;2040;50.924;11.604;2024-03-08T05:45:06;27.67;;;12.40;;
4051;SDS011;2040;50.924;11.604;2024-03-08T05:47:32;24.47;;;10.90;;
4051;SDS011;2040;50.924;11.604;2024-03-08T05:50:00;29.30;;;11.47;;
4051;SDS011;2040;50.924;11.604;2024-03-08T05:52:25;32.57;;;13.07;;
4051;SDS011;2040;50.924;11.604;2024-03-08T05:54:51;22.93;;;10.47;;
4051;SDS011;2040;50.924;11.604;2024-03-08T05:57:17;24.47;;;12.30;;
4051;SDS011;2040;50.924;11.604;2024-03-08T05:59:43;25.17;;;11.40;;
4051;SDS011;2040;50.924;11.604;2024-03-08T06:02:08;25.80;;;10.00;;
4051;SDS011;2040;50.924;11.604;2024-03-08T06:04:34;30.43;;;11.60;;
4051;SDS011;2040;50.924;11.604;2024-03-08T06:06:59;20.87;;;9.27;;
4051;SDS011;2040;50.924;11.604;2024-03-08T06:09:25;20.13;;;9.70;;
4051;SDS011;2040;50.924;11.604;2024-03-08T06:11:54;19.60;;;11.13;;
4051;SDS011;2040;50.924;11.604;2024-03-08T06:14:19;23.70;;;11.07;;
4051;SDS011;2040;50.924;11.604;2024-03-08T06:16:45;22.37;;;11.17;;
4051;SDS011;2040;50.924;11.604;2024-03-08T06:19:11;25.87;;;11.10;;
4051;SDS011;2040;50.924;11.604;2024-03-08T06:21:37;18.33;;;10.30;;
4051;SDS011;2040;50.924;11.604;2024-03-08T06:24:03;19.07;;;10.30;;
4051;SDS011;2040;50.924;11.604;2024-03-08T06:26:29;20.77;;;10.90;;
4051;SDS011;2040;50.924;11.604;2024-03-08T06:28:54;18.27;;;9.67;;
4051;SDS011;2040;50.924;11.604;2024-03-08T06:31:20;18.90;;;11.27;;
4051;SDS011;2040;50.924;11.604;2024-03-08T06:33:46;30.67;;;13.57;;
4051;SDS011;2040;50.924;11.604;2024-03-08T06:36:15;25.20;;;12.10;;
4051;SDS011;2040;50.924;11.604;2024-03-08T06:38:43;21.50;;;13.03;;
4051;SDS011;2040;50.924;11.604;2024-03-08T06:41:15;22.80;;;12.93;;
4051;SDS011;2040;50.924;11.604;2024-03-08T06:43:42;35.60;;;13.07;;
4051;SDS011;2040;50.924;11.604;2024-03-08T06:46:08;25.20;;;12.47;;
4051;SDS011;2040;50.924;11.604;2024-03-08T06:48:34;25.13;;;11.73;;
4051;SDS011;2040;50.924;11.604;2024-03-08T06:51:02;24.30;;;12.67;;
4051;SDS011;2040;50.924;11.604;2024-03-08T06:53:28;22.70;;;11.90;;
4051;SDS011;2040;50.924;11.604;2024-03-08T06:55:54;27.43;;;13.00;;
4051;SDS011;2040;50.924;11.604;2024-03-08T06:58:19;21.70;;;10.77;;
4051;SDS011;2040;50.924;11.604;2024-03-08T07:00:45;26.03;;;12.10;;
4051;SDS011;2040;50.924;11.604;2024-03-08T07:03:11;25.27;;;11.10;;
4051;SDS011;2040;50.924;11.604;2024-03-08T07:05:42;24.60;;;11.90;;
4051;SDS011;2040;50.924;11.604;2024-03-08T07:08:07;20.17;;;9.27;;
4051;SDS011;2040;50.924;11.604;2024-03-08T07:10:33;24.13;;;11.70;;
4051;SDS011;2040;50.924;11.604;2024-03-08T07:12:59;20.40;;;12.63;;
4051;SDS011;2040;50.924;11.604;2024-03-08T07:15:27;23.93;;;12.67;;
4051;SDS011;2040;50.924;11.604;2024-03-08T07:17:53;21.47;;;12.33;;
4051;SDS011;2040;50.924;11.604;2024-03-08T07:20:19;28.53;;;13.17;;
4051;SDS011;2040;50.924;11.604;2024-03-08T07:22:46;31.23;;;14.13;;
4051;SDS011;2040;50.924;11.604;2024-03-08T07:25:18;33.70;;;13.47;;
4051;SDS011;2040;50.924;11.604;2024-03-08T07:27:51;26.60;;;14.27;;
4051;SDS011;2040;50.924;11.604;2024-03-08T07:30:21;22.90;;;10.60;;
4051;SDS011;2040;50.924;11.604;2024-03-08T07:33:06;23.73;;;11.80;;
4051;SDS011;2040;50.924;11.604;2024-03-08T07:35:32;24.57;;;13.23;;
4051;SDS011;2040;50.924;11.604;2024-03-08T07:38:02;37.93;;;15.73;;
4051;SDS011;2040;50.924;11.604;2024-03-08T07:40:29;24.90;;;12.77;;
4051;SDS011;2040;50.924;11.604;2024-03-08T07:42:55;27.33;;;13.27;;
4051;SDS011;2040;50.924;11.604;2024-03-08T07:45:21;23.80;;;12.97;;
4051;SDS011;2040;50.924;11.604;2024-03-08T07:47:47;31.27;;;13.53;;
4051;SDS011;2040;50.924;11.604;2024-03-08T07:50:12;23.17;;;12.03;;
4051;SDS011;2040;50.924;11.604;2024-03-08T07:52:41;26.37;;;12.80;;
4051;SDS011;2040;50.924;11.604;2024-03-08T07:55:07;24.30;;;12.50;;
4051;SDS011;2040;50.924;11.604;2024-03-08T07:57:33;26.83;;;14.10;;
4051;SDS011;2040;50.924;11.604;2024-03-08T07:59:58;30.37;;;14.67;;
4051;SDS011;2040;50.924;11.604;2024-03-08T08:02:24;23.77;;;11.93;;
4051;SDS011;2040;50.924;11.604;2024-03-08T08:04:49;25.90;;;14.30;;
4051;SDS011;2040;50.924;11.604;2024-03-08T08:07:15;28.50;;;15.23;;
4051;SDS011;2040;50.924;11.604;2024-03-08T08:09:41;24.87;;;13.50;;
4051;SDS011;2040;50.924;11.604;2024-03-08T08:12:08;28.03;;;14.47;;
4051;SDS011;2040;50.924;11.604;2024-03-08T08:14:37;25.90;;;13.13;;
4051;SDS011;2040;50.924;11.604;2024-03-08T08:17:02;27.30;;;15.07;;
4051;SDS011;2040;50.924;11.604;2024-03-08T08:19:30;32.20;;;15.23;;
4051;SDS011;2040;50.924;11.604;2024-03-08T08:21:56;24.27;;;14.47;;
4051;SDS011;2040;50.924;11.604;2024-03-08T08:24:22;26.57;;;14.57;;
4051;SDS011;2040;50.924;11.604;2024-03-08T08:26:48;28.20;;;14.27;;
4051;SDS011;2040;50.924;11.604;2024-03-08T08:29:14;30.87;;;15.10;;
4051;SDS011;2040;50.924;11.604;2024-03-08T08:31:39;36.57;;;14.60;;
4051;SDS011;2040;50.924;11.604;2024-03-08T08:34:05;32.83;;;16.30;;
4051;SDS011;2040;50.924;11.604;2024-03-08T08:36:32;27.63;;;13.30;;
4051;SDS011;2040;50.924;11.604;2024-03-08T08:38:57;35.13;;;15.43;;
4051;SDS011;2040;50.924;11.604;2024-03-08T08:41:24;30.77;;;17.10;;
4051;SDS011;2040;50.924;11.604;2024-03-08T08:43:50;32.43;;;14.43;;
4051;SDS011;2040;50.924;11.604;2024-03-08T08:46:19;30.50;;;15.27;;
4051;SDS011;2040;50.924;11.604;2024-03-08T08:48:44;30.80;;;15.90;;
4051;SDS011;2040;50.924;11.604;2024-03-08T08:51:10;32.93;;;14.70;;
4051;SDS011;2040;50.924;11.604;2024-03-08T08:53:40;28.50;;;14.77;;
4051;SDS011;2040;50.924;11.604;2024-03-08T08:56:11;33.50;;;16.67;;
4051;SDS011;2040;50.924;11.604;2024-03-08T08:58:41;30.13;;;14.73;;
4051;SDS011;2040;50.924;11.604;2024-03-08T09:01:10;27.03;;;15.53;;
4051;SDS011;2040;50.924;11.604;2024-03-08T09:03:36;30.67;;;15.93;;
4051;SDS011;2040;50.924;11.604;2024-03-08T09:06:03;27.77;;;15.53;;
4051;SDS011;2040;50.924;11.604;2024-03-08T09:08:29;28.00;;;16.03;;
4051;SDS011;2040;50.924;11.604;2024-03-08T09:10:55;29.60;;;16.07;;
4051;SDS011;2040;50.924;11.604;2024-03-08T09:13:21;37.43;;;16.83;;
4051;SDS011;2040;50.924;11.604;2024-03-08T09:15:46;28.37;;;15.97;;
4051;SDS011;2040;50.924;11.604;2024-03-08T09:18:12;32.60;;;16.40;;
4051;SDS011;2040;50.924;11.604;2024-03-08T09:20:37;31.07;;;16.50;;
4051;SDS011;2040;50.924;11.604;2024-03-08T09:23:03;34.13;;;15.87;;
4051;SDS011;2040;50.924;11.604;2024-03-08T09:25:29;33.87;;;13.47;;
4051;SDS011;2040;50.924;11.604;2024-03-08T09:27:55;31.27;;;14.70;;
4051;SDS011;2040;50.924;11.604;2024-03-08T09:30:20;37.77;;;15.10;;
4051;SDS011;2040;50.924;11.604;2024-03-08T09:32:46;32.77;;;14.87;;
4051;SDS011;2040;50.924;11.604;2024-03-08T09:35:12;33.77;;;16.40;;
4051;SDS011;2040;50.924;11.604;2024-03-08T09:37:37;31.37;;;15.63;;
4051;SDS011;2040;50.924;11.604;2024-03-08T09:40:04;31.60;;;15.07;;
4051;SDS011;2040;50.924;11.604;2024-03-08T09:42:34;30.80;;;15.53;;
4051;SDS011;2040;50.924;11.604;2024-03-08T09:45:03;27.33;;;15.73;;
4051;SDS011;2040;50.924;11.604;2024-03-08T09:47:36;29.57;;;15.50;;
4051;SDS011;2040;50.924;11.604;2024-03-08T09:50:06;30.83;;;14.23;;
4051;SDS011;2040;50.924;11.604;2024-03-08T09:52:34;17.77;;;10.80;;
4051;SDS011;2040;50.924;11.604;2024-03-08T09:55:12;25.90;;;13.40;;
4051;SDS011;2040;50.924;11.604;2024-03-08T09:57:37;23.43;;;12.10;;
4051;SDS011;2040;50.924;11.604;2024-03-08T10:00:04;25.20;;;12.87;;
4051;SDS011;2040;50.924;11.604;2024-03-08T10:02:46;24.07;;;11.97;;
4051;SDS011;2040;50.924;11.604;2024-03-08T10:05:12;26.07;;;12.27;;
4051;SDS011;2040;50.924;11.604;2024-03-08T10:07:39;22.77;;;10.70;;
4051;SDS011;2040;50.924;11.604;2024-03-08T10:10:05;28.07;;;10.00;;
4051;SDS011;2040;50.924;11.604;2024-03-08T10:12:30;23.50;;;10.03;;
4051;SDS011;2040;50.924;11.604;2024-03-08T10:14:58;32.70;;;12.70;;
4051;SDS011;2040;50.924;11.604;2024-03-08T10:17:24;24.83;;;10.00;;
4051;SDS011;2040;50.924;11.604;2024-03-08T10:19:50;19.53;;;10.37;;
4051;SDS011;2040;50.924;11.604;2024-03-08T10:22:17;19.37;;;11.07;;
4051;SDS011;2040;50.924;11.604;2024-03-08T10:24:45;25.40;;;11.53;;
4051;SDS011;2040;50.924;11.604;2024-03-08T10:27:16;20.40;;;11.00;;
4051;SDS011;2040;50.924;11.604;2024-03-08T10:29:42;25.03;;;11.73;;
4051;SDS011;2040;50.924;11.604;2024-03-08T10:32:09;22.90;;;11.73;;
4051;SDS011;2040;50.924;11.604;2024-03-08T10:34:35;20.20;;;11.47;;
4051;SDS011;2040;50.924;11.604;2024-03-08T10:37:02;24.80;;;11.13;;
4051;SDS011;2040;50.924;11.604;2024-03-08T10:39:29;22.17;;;11.13;;
4051;SDS011;2040;50.924;11.604;2024-03-08T10:42:02;26.53;;;11.33;;
4051;SDS011;2040;50.924;11.604;2024-03-08T10:47:09;18.00;;;10.43;;
4051;SDS011;2040;50.924;11.604;2024-03-08T10:49:50;23.10;;;12.27;;
4051;SDS011;2040;50.924;11.604;2024-03-08T10:52:16;25.93;;;11.63;;
4051;SDS011;2040;50.924;11.604;2024-03-08T10:54:43;21.13;;;11.20;;
4051;SDS011;2040;50.924;11.604;2024-03-08T10:57:10;20.60;;;11.03;;
4051;SDS011;2040;50.924;11.604;2024-03-08T10:59:37;23.80;;;11.17;;
4051;SDS011;2040;50.924;11.604;2024-03-08T11:02:04;27.10;;;12.17;;
4051;SDS011;2040;50.924;11.604;2024-03-08T11:04:31;25.87;;;11.93;;
4051;SDS011;2040;50.924;11.604;2024-03-08T11:07:01;20.63;;;10.90;;
4051;SDS011;2040;50.924;11.604;2024-03-08T11:09:39;20.73;;;11.67;;
4051;SDS011;2040;50.924;11.604;2024-03-08T11:12:19;23.50;;;11.90;;
4051;SDS011;2040;50.924;11.604;2024-03-08T11:14:59;22.00;;;11.17;;
4051;SDS011;2040;50.924;11.604;2024-03-08T11:20:03;23.23;;;10.97;;
4051;SDS011;2040;50.924;11.604;2024-03-08T11:22:55;24.73;;;12.33;;
4051;SDS011;2040;50.924;11.604;2024-03-08T11:25:41;26.03;;;12.80;;
4051;SDS011;2040;50.924;11.604;2024-03-08T11:28:19;23.77;;;12.40;;
4051;SDS011;2040;50.924;11.604;2024-03-08T11:30:47;25.20;;;12.70;;
4051;SDS011;2040;50.924;11.604;2024-03-08T11:33:34;23.50;;;12.00;;
4051;SDS011;2040;50.924;11.604;2024-03-08T11:38:40;29.87;;;13.57;;
4051;SDS011;2040;50.924;11.604;2024-03-08T11:41:06;20.60;;;10.90;;
4051;SDS011;2040;50.924;11.604;2024-03-08T11:43:32;24.87;;;10.80;;
4051;SDS011;2040;50.924;11.604;2024-03-08T11:46:07;22.80;;;10.90;;
4051;SDS011;2040;50.924;11.604;2024-03-08T11:48:33;24.00;;;13.17;;
4051;SDS011;2040;50.924;11.604;2024-03-08T11:51:01;24.13;;;13.23;;
4051;SDS011;2040;50.924;11.604;2024-03-08T11:53:26;26.20;;;12.53;;
4051;SDS011;2040;50.924;11.604;2024-03-08T11:55:52;23.53;;;12.90;;
4051;SDS011;2040;50.924;11.604;2024-03-08T11:58:18;19.93;;;12.47;;
4051;SDS011;2040;50.924;11.604;2024-03-08T12:00:44;20.27;;;11.97;;
4051;SDS011;2040;50.924;11.604;2024-03-08T12:03:11;24.40;;;12.80;;
4051;SDS011;2040;50.924;11.604;2024-03-08T12:05:37;30.77;;;15.03;;
4051;SDS011;2040;50.924;11.604;2024-03-08T12:08:03;21.03;;;12.60;;
4051;SDS011;2040;50.924;11.604;2024-03-08T12:10:32;24.90;;;12.67;;
4051;SDS011;2040;50.924;11.604;2024-03-08T12:13:00;26.83;;;13.47;;
4051;SDS011;2040;50.924;11.604;2024-03-08T12:15:25;24.33;;;12.73;;
4051;SDS011;2040;50.924;11.604;2024-03-08T12:17:53;23.00;;;13.03;;
4051;SDS011;2040;50.924;11.604;2024-03-08T12:20:21;23.13;;;12.37;;
4051;SDS011;2040;50.924;11.604;2024-03-08T12:22:48;25.57;;;14.30;;
4051;SDS011;2040;50.924;11.604;2024-03-08T12:25:15;26.33;;;13.03;;
4051;SDS011;2040;50.924;11.604;2024-03-08T12:27:41;29.90;;;11.93;;
4051;SDS011;2040;50.924;11.604;2024-03-08T12:32:56;22.63;;;12.53;;
4051;SDS011;2040;50.924;11.604;2024-03-08T12:35:23;22.97;;;12.63;;
4051;SDS011;2040;50.924;11.604;2024-03-08T12:37:53;21.30;;;11.77;;
4051;SDS011;2040;50.924;11.604;2024-03-08T12:40:26;19.67;;;11.23;;
4051;SDS011;2040;50.924;11.604;2024-03-08T12:42:54;22.40;;;11.20;;
4051;SDS011;2040;50.924;11.604;2024-03-08T12:45:21;19.33;;;10.80;;
4051;SDS011;2040;50.924;11.604;2024-03-08T12:47:48;22.30;;;11.60;;
4051;SDS011;2040;50.924;11.604;2024-03-08T12:50:18;18.70;;;9.57;;
4051;SDS011;2040;50.924;11.604;2024-03-08T12:52:44;17.47;;;9.70;;
4051;SDS011;2040;50.924;11.604;2024-03-08T12:55:09;18.03;;;10.20;;
4051;SDS011;2040;50.924;11.604;2024-03-08T12:57:35;16.43;;;9.60;;
4051;SDS011;2040;50.924;11.604;2024-03-08T13:00:02;19.33;;;10.90;;
4051;SDS011;2040;50.924;11.604;2024-03-08T13:02:29;21.77;;;10.70;;
4051;SDS011;2040;50.924;11.604;2024-03-08T13:04:56;25.00;;;11.00;;
4051;SDS011;2040;50.924;11.604;2024-03-08T13:07:25;26.23;;;11.67;;
4051;SDS011;2040;50.924;11.604;2024-03-08T13:09:52;17.30;;;10.37;;
4051;SDS011;2040;50.924;11.604;2024-03-08T13:12:19;20.70;;;11.40;;
4051;SDS011;2040;50.924;11.604;2024-03-08T13:14:45;25.47;;;12.00;;
4051;SDS011;2040;50.924;11.604;2024-03-08T13:17:11;22.13;;;10.80;;
4051;SDS011;2040;50.924;11.604;2024-03-08T13:19:37;27.13;;;12.17;;
4051;SDS011;2040;50.924;11.604;2024-03-08T13:22:03;25.20;;;10.90;;
4051;SDS011;2040;50.924;11.604;2024-03-08T13:24:29;24.40;;;10.90;;
4051;SDS011;2040;50.924;11.604;2024-03-08T13:26:55;23.50;;;11.10;;
4051;SDS011;2040;50.924;11.604;2024-03-08T13:29:21;24.67;;;11.90;;
4051;SDS011;2040;50.924;11.604;2024-03-08T13:31:47;23.57;;;11.13;;
4051;SDS011;2040;50.924;11.604;2024-03-08T13:34:16;22.60;;;11.20;;
4051;SDS011;2040;50.924;11.604;2024-03-08T13:36:42;18.97;;;11.00;;
4051;SDS011;2040;50.924;11.604;2024-03-08T13:39:09;24.03;;;11.57;;
4051;SDS011;2040;50.924;11.604;2024-03-08T13:41:41;20.70;;;11.67;;
4051;SDS011;2040;50.924;11.604;2024-03-08T13:44:07;21.80;;;10.83;;
4051;SDS011;2040;50.924;11.604;2024-03-08T13:46:32;26.40;;;12.27;;
4051;SDS011;2040;50.924;11.604;2024-03-08T13:49:03;24.70;;;11.93;;
4051;SDS011;2040;50.924;11.604;2024-03-08T13:51:34;28.70;;;12.70;;
4051;SDS011;2040;50.924;11.604;2024-03-08T13:54:00;21.47;;;12.27;;
4051;SDS011;2040;50.924;11.604;2024-03-08T13:56:27;30.43;;;12.60;;
4051;SDS011;2040;50.924;11.604;2024-03-08T13:58:56;24.37;;;12.17;;
4051;SDS011;2040;50.924;11.604;2024-03-08T14:01:22;17.10;;;9.57;;
4051;SDS011;2040;50.924;11.604;2024-03-08T14:03:48;22.80;;;11.90;;
4051;SDS011;2040;50.924;11.604;2024-03-08T14:06:13;21.50;;;10.30;;
4051;SDS011;2040;50.924;11.604;2024-03-08T14:08:39;21.40;;;11.07;;
4051;SDS011;2040;50.924;11.604;2024-03-08T14:11:05;27.10;;;11.90;;
4051;SDS011;2040;50.924;11.604;2024-03-08T14:13:44;31.00;;;16.10;;
4051;SDS011;2040;50.924;11.604;2024-03-08T14:16:10;19.50;;;8.90;;
4051;SDS011;2040;50.924;11.604;2024-03-08T14:18:36;23.80;;;10.87;;
4051;SDS011;2040;50.924;11.604;2024-03-08T14:21:02;17.30;;;11.17;;
4051;SDS011;2040;50.924;11.604;2024-03-08T14:23:29;18.60;;;10.50;;
4051;SDS011;2040;50.924;11.604;2024-03-08T14:25:55;19.90;;;10.90;;
4051;SDS011;2040;50.924;11.604;2024-03-08T14:28:20;16.43;;;9.37;;
4051;SDS011;2040;50.924;11.604;2024-03-08T14:30:47;18.70;;;11.10;;
4051;SDS011;2040;50.924;11.604;2024-03-08T14:33:13;20.80;;;10.70;;
4051;SDS011;2040;50.924;11.604;2024-03-08T14:35:39;16.60;;;8.20;;
4051;SDS011;2040;50.924;11.604;2024-03-08T14:38:05;20.97;;;10.50;;
4051;SDS011;2040;50.924;11.604;2024-03-08T14:40:36;16.43;;;9.53;;
4051;SDS011;2040;50.924;11.604;2024-03-08T14:43:02;13.40;;;8.90;;
4051;SDS011;2040;50.924;11.604;2024-03-08T14:45:29;19.37;;;10.33;;
4051;SDS011;2040;50.924;11.604;2024-03-08T14:47:55;21.00;;;9.97;;
4051;SDS011;2040;50.924;11.604;2024-03-08T14:50:22;19.43;;;9.47;;